createdAt,value
2022-11-25T00:00:41.301Z,2.15
2022-11-25T00:04:43.947Z,2.03
2022-11-25T00:08:47.847Z,1.80
2022-11-25T00:12:49.527Z,2.20
2022-11-25T00:16:51.198Z,2.67
2022-11-25T00:20:52.822Z,2.13
2022-11-25T00:24:54.406Z,2.17
2022-11-25T00:28:59.053Z,2.17
2022-11-25T00:33:00.646Z,2.08
2022-11-25T00:37:02.235Z,2.38
2022-11-25T00:41:22.693Z,2.05
2022-11-25T00:45:24.349Z,2.53
2022-11-25T00:49:26.113Z,2.10
2022-11-25T00:53:27.685Z,2.33
2022-11-25T00:57:30.119Z,2.47
2022-11-25T01:01:31.936Z,1.98
2022-11-25T01:05:33.726Z,2.30
2022-11-25T01:09:35.495Z,1.60
2022-11-25T01:13:37.278Z,1.98
2022-11-25T01:17:38.911Z,2.03
2022-11-25T01:21:41.194Z,2.15
2022-11-25T01:25:42.771Z,2.05
2022-11-25T01:29:44.391Z,2.17
2022-11-25T01:33:47.624Z,2.08
2022-11-25T01:37:49.223Z,2.33
2022-11-25T01:41:51.120Z,2.28
2022-11-25T01:45:57.297Z,1.70
2022-11-25T01:50:06.535Z,1.70
2022-11-25T01:54:11.619Z,2.17
2022-11-25T01:58:18.538Z,2.00
2022-11-25T02:02:21.945Z,1.70
2022-11-25T02:06:27.010Z,2.10
2022-11-25T02:10:32.260Z,2.25
2022-11-25T02:14:34.943Z,2.20
2022-11-25T02:18:36.746Z,2.25
2022-11-25T02:23:04.020Z,1.83
2022-11-25T02:27:06.034Z,1.80
2022-11-25T02:31:08.528Z,1.60
2022-11-25T02:35:31.189Z,2.05
2022-11-25T02:39:32.768Z,1.98
2022-11-25T02:43:34.423Z,1.98
2022-11-25T02:47:36.046Z,2.20
2022-11-25T02:51:39.856Z,1.60
2022-11-25T02:55:41.535Z,1.77
2022-11-25T02:59:43.117Z,2.10
2022-11-25T03:03:44.776Z,1.83
2022-11-25T03:07:46.460Z,1.50
2022-11-25T03:12:06.916Z,1.58
2022-11-25T03:16:08.735Z,1.42
2022-11-25T03:20:12.638Z,1.73
2022-11-25T03:24:14.309Z,1.75
2022-11-25T03:28:16.010Z,1.95
2022-11-25T03:32:17.871Z,1.65
2022-11-25T03:36:20.729Z,1.80
2022-11-25T03:40:22.469Z,1.60
2022-11-25T03:44:24.090Z,2.00
2022-11-25T03:48:25.729Z,2.05
2022-11-25T03:52:27.348Z,1.95
2022-11-25T03:56:29.117Z,2.05
2022-11-25T04:00:31.208Z,1.80
2022-11-25T04:04:32.996Z,1.65
2022-11-25T04:08:34.691Z,1.60
2022-11-25T04:12:48.541Z,1.50
2022-11-25T04:16:50.248Z,1.73
2022-11-25T04:20:52.115Z,1.67
2022-11-25T04:24:53.843Z,1.48
2022-11-25T04:28:55.459Z,1.70
2022-11-25T04:32:57.235Z,1.65
2022-11-25T04:36:58.854Z,1.67
2022-11-25T04:41:00.468Z,2.08
2022-11-25T04:49:27.370Z,1.58
2022-11-25T04:53:28.968Z,1.45
2022-11-25T04:57:30.641Z,1.23
2022-11-25T05:01:32.373Z,1.50
2022-11-25T05:05:34.023Z,1.70
2022-11-25T05:09:35.924Z,1.48
2022-11-25T05:13:37.508Z,1.50
2022-11-25T05:17:39.714Z,1.40
2022-11-25T05:21:41.320Z,1.60
2022-11-25T05:25:43.040Z,1.20
2022-11-25T05:29:45.182Z,1.30
2022-11-25T05:33:46.773Z,1.67
2022-11-25T05:37:48.482Z,1.30
2022-11-25T05:41:50.093Z,1.38
2022-11-25T05:45:51.796Z,1.50
2022-11-25T05:49:53.465Z,1.40
2022-11-25T05:53:56.289Z,1.20
2022-11-25T05:57:59.844Z,1.45
2022-11-25T06:02:01.489Z,1.40
2022-11-25T06:06:03.801Z,1.38
2022-11-25T06:10:06.231Z,1.45
2022-11-25T06:14:08.248Z,1.77
2022-11-25T06:18:10.900Z,1.40
2022-11-25T06:22:12.483Z,1.25
2022-11-25T06:26:17.366Z,1.30
2022-11-25T06:30:19.811Z,1.50
2022-11-25T06:34:21.521Z,1.95
2022-11-25T06:38:23.126Z,1.52
2022-11-25T06:42:24.752Z,1.50
2022-11-25T06:46:26.513Z,1.50
2022-11-25T06:50:28.268Z,1.52
2022-11-25T06:54:29.965Z,1.60
2022-11-25T06:58:36.231Z,2.00
2022-11-25T07:02:43.993Z,1.88
2022-11-25T07:06:49.865Z,2.40
2022-11-25T07:10:52.071Z,2.20
2022-11-25T07:14:53.924Z,2.00
2022-11-25T07:18:55.635Z,1.75
2022-11-25T07:22:57.231Z,2.03
2022-11-25T07:26:58.848Z,2.28
2022-11-25T07:31:28.542Z,2.20
2022-11-25T07:35:34.056Z,2.35
2022-11-25T07:39:35.993Z,2.05
2022-11-25T07:43:38.585Z,2.30
2022-11-25T07:47:40.218Z,2.20
2022-11-25T07:51:53.833Z,1.90
2022-11-25T07:55:55.443Z,2.15
2022-11-25T07:59:57.471Z,2.13
2022-11-25T08:03:59.262Z,2.17
2022-11-25T08:08:00.927Z,2.28
2022-11-25T08:12:02.723Z,2.17
2022-11-25T08:16:05.274Z,2.30
2022-11-25T08:20:07.640Z,2.08
2022-11-25T08:24:15.706Z,1.90
2022-11-25T08:28:17.318Z,2.15
2022-11-25T08:32:18.914Z,2.15
2022-11-25T08:36:21.392Z,2.35
2022-11-25T08:40:22.976Z,2.80
2022-11-25T08:44:28.166Z,2.33
2022-11-25T08:48:29.775Z,2.13
2022-11-25T08:52:31.375Z,2.20
2022-11-25T08:56:33.050Z,3.67
2022-11-25T09:00:34.688Z,2.20
2022-11-25T09:04:36.268Z,2.35
2022-11-25T09:08:39.580Z,2.22
2022-11-25T09:12:41.260Z,2.17
2022-11-25T09:16:42.955Z,2.58
2022-11-25T09:20:44.784Z,1.95
2022-11-25T09:24:46.374Z,2.22
2022-11-25T09:28:48.027Z,2.10
2022-11-25T09:32:51.454Z,2.10
2022-11-25T09:36:53.171Z,2.28
2022-11-25T09:40:55.342Z,2.53
2022-11-25T09:45:35.674Z,2.42
2022-11-25T09:49:45.897Z,2.10
2022-11-25T09:53:53.300Z,2.08
2022-11-25T09:58:04.142Z,2.45
2022-11-25T10:02:21.458Z,2.03
2022-11-25T10:06:29.604Z,2.22
2022-11-25T10:10:48.137Z,2.20
2022-11-25T10:14:53.592Z,2.13
2022-11-25T10:19:19.503Z,2.53
2022-11-25T10:23:50.462Z,1.97
2022-11-25T10:28:17.320Z,2.33
2022-11-25T10:32:25.442Z,2.28
2022-11-25T10:36:38.103Z,1.98
2022-11-25T10:40:39.877Z,2.47
2022-11-25T10:44:42.184Z,2.28
2022-11-25T10:48:57.961Z,1.90
2022-11-25T10:53:20.034Z,1.83
2022-11-25T10:57:26.482Z,2.28
2022-11-25T11:01:28.161Z,2.00
2022-11-25T11:05:31.306Z,1.73
2022-11-25T11:09:39.302Z,2.05
2022-11-25T11:13:41.093Z,2.50
2022-11-25T11:17:42.776Z,1.77
2022-11-25T11:21:45.701Z,1.90
2022-11-25T11:26:02.269Z,1.73
2022-11-25T11:30:29.282Z,1.80
2022-11-25T11:34:45.943Z,1.85
2022-11-25T11:38:55.945Z,1.73
2022-11-25T11:43:21.037Z,1.90
2022-11-25T11:47:44.265Z,1.83
2022-11-25T11:52:31.559Z,2.00
2022-11-25T12:00:58.837Z,1.90
2022-11-25T12:05:14.338Z,2.20
2022-11-25T12:09:21.345Z,1.80
2022-11-25T12:13:37.605Z,1.73
2022-11-25T12:17:51.226Z,1.88
2022-11-25T12:22:01.810Z,2.10
2022-11-25T12:26:11.049Z,1.95
2022-11-25T12:30:16.204Z,1.83
2022-11-25T12:34:27.569Z,1.40
2022-11-25T12:38:45.581Z,1.77
2022-11-25T12:42:49.483Z,1.88
2022-11-25T12:46:53.556Z,1.70
2022-11-25T12:51:23.642Z,1.50
2022-11-25T12:55:28.948Z,1.42
2022-11-25T13:00:17.508Z,1.53
2022-11-25T13:04:32.346Z,1.63
2022-11-25T13:08:59.777Z,1.90
2022-11-25T13:13:18.199Z,1.80
2022-11-25T13:17:22.847Z,1.80
2022-11-25T13:21:27.442Z,2.10
2022-11-25T13:25:29.976Z,1.27
2022-11-25T13:29:31.512Z,1.63
2022-11-25T13:33:45.392Z,1.33
2022-11-25T13:37:47.599Z,1.60
2022-11-25T13:42:21.582Z,1.58
2022-11-25T13:46:39.629Z,1.50
2022-11-25T13:51:09.336Z,1.55
2022-11-25T13:55:22.880Z,1.65
2022-11-25T13:59:42.719Z,1.50
2022-11-25T14:03:46.436Z,1.55
2022-11-25T14:08:12.261Z,1.63
2022-11-25T14:12:22.604Z,1.30
2022-11-25T14:16:27.248Z,1.10
2022-11-25T14:20:47.671Z,1.50
2022-11-25T14:24:53.041Z,1.63
2022-11-25T14:29:12.846Z,1.40
2022-11-25T14:33:21.053Z,1.23
2022-11-25T14:37:28.096Z,1.65
2022-11-25T14:41:52.497Z,1.52
2022-11-25T14:46:20.655Z,1.17
2022-11-25T14:50:39.154Z,1.27
2022-11-25T14:54:43.535Z,1.38
2022-11-25T14:58:50.822Z,1.67
2022-11-25T15:03:00.744Z,1.63
2022-11-25T15:07:16.117Z,1.30
2022-11-25T15:11:20.649Z,1.58
2022-11-25T15:15:22.253Z,1.50
2022-11-25T15:19:33.864Z,1.25
2022-11-25T15:23:38.250Z,1.30
2022-11-25T15:27:50.294Z,1.27
2022-11-25T15:31:53.572Z,1.10
2022-11-25T15:35:55.813Z,1.67
2022-11-25T15:40:31.149Z,1.45
2022-11-25T15:44:40.464Z,1.88
2022-11-25T15:48:47.128Z,1.30
2022-11-25T15:52:53.830Z,1.45
2022-11-25T15:57:03.436Z,1.48
2022-11-25T16:01:19.888Z,1.90
2022-11-25T16:05:28.021Z,1.42
2022-11-25T16:09:31.312Z,0.98
2022-11-25T16:13:34.624Z,1.50
2022-11-25T16:17:37.814Z,1.17
2022-11-25T16:21:46.626Z,1.40
2022-11-25T16:25:56.458Z,1.20
2022-11-25T16:30:19.949Z,1.25
2022-11-25T16:34:24.217Z,1.38
2022-11-25T16:38:26.711Z,1.27
2022-11-25T16:42:33.879Z,1.30
2022-11-25T16:46:35.531Z,1.38
2022-11-25T16:50:37.126Z,1.23
2022-11-25T16:54:39.316Z,1.30
2022-11-25T16:58:43.974Z,0.88
2022-11-25T17:02:45.841Z,1.15
2022-11-25T17:07:16.584Z,1.08
2022-11-25T17:11:28.029Z,1.25
2022-11-25T17:15:35.346Z,1.30
2022-11-25T17:19:37.627Z,1.35
2022-11-25T17:23:39.555Z,1.30
2022-11-25T17:27:42.378Z,1.40
2022-11-25T17:31:45.211Z,1.52
2022-11-25T17:35:46.847Z,1.05
2022-11-25T17:39:48.699Z,0.93
2022-11-25T17:43:51.970Z,1.40
2022-11-25T17:47:53.758Z,0.95
2022-11-25T17:51:56.824Z,0.98
2022-11-25T17:55:58.517Z,1.17
2022-11-25T18:00:00.245Z,1.20
2022-11-25T18:04:16.524Z,1.00
2022-11-25T18:12:26.533Z,1.23
2022-11-25T18:16:31.229Z,1.20
2022-11-25T18:20:35.218Z,1.42
2022-11-25T18:24:39.278Z,1.30
2022-11-25T18:28:41.168Z,1.20
2022-11-25T18:32:46.187Z,1.45
2022-11-25T18:36:47.946Z,1.30
2022-11-25T18:40:53.573Z,1.60
2022-11-25T18:44:56.261Z,1.30
2022-11-25T18:48:57.931Z,1.45
2022-11-25T18:52:59.496Z,1.83
2022-11-25T18:57:01.402Z,1.55
2022-11-25T19:01:05.706Z,1.23
2022-11-25T19:05:21.182Z,1.30
2022-11-25T19:09:22.797Z,1.40
2022-11-25T19:13:32.688Z,1.25
2022-11-25T19:17:34.424Z,1.10
2022-11-25T19:21:36.098Z,1.75
2022-11-25T19:25:37.712Z,1.50
2022-11-25T19:29:42.276Z,1.40
2022-11-25T19:33:47.595Z,1.55
2022-11-25T19:37:49.371Z,2.00
2022-11-25T19:41:51.404Z,1.98
2022-11-25T19:45:57.555Z,1.63
2022-11-25T19:54:02.606Z,1.23
2022-11-25T19:58:04.201Z,1.42
2022-11-25T20:02:15.436Z,1.83
2022-11-25T20:06:20.944Z,1.65
2022-11-25T20:10:25.913Z,1.90
2022-11-25T20:14:27.559Z,1.58
2022-11-25T20:18:30.158Z,1.98
2022-11-25T20:22:36.110Z,1.77
2022-11-25T20:31:36.178Z,1.90
2022-11-25T20:40:40.985Z,1.40
2022-11-25T20:44:42.703Z,1.95
2022-11-25T20:48:45.684Z,2.08
2022-11-25T20:52:50.015Z,1.88
2022-11-25T20:56:51.668Z,2.08
2022-11-25T21:00:58.351Z,2.38
2022-11-25T21:05:00.051Z,1.98
2022-11-25T21:09:02.101Z,2.15
2022-11-25T21:13:14.079Z,1.88
2022-11-25T21:17:16.421Z,1.85
2022-11-25T21:21:33.754Z,2.20
2022-11-25T21:25:35.408Z,1.83
2022-11-25T21:29:37.411Z,2.40
2022-11-25T21:33:39.546Z,2.22
2022-11-25T21:37:43.332Z,2.00
2022-11-25T21:41:45.376Z,2.15
2022-11-25T21:45:49.466Z,2.15
2022-11-25T21:49:51.743Z,2.15
2022-11-25T21:53:54.013Z,2.20
2022-11-25T21:57:55.614Z,2.22
2022-11-25T22:01:57.376Z,2.20
2022-11-25T22:05:58.983Z,2.20
2022-11-25T22:10:00.645Z,2.42
2022-11-25T22:14:10.473Z,2.33
2022-11-25T22:18:21.910Z,2.38
2022-11-25T22:22:24.303Z,2.45
2022-11-25T22:26:33.410Z,2.08
2022-11-25T22:30:35.294Z,2.22
2022-11-25T22:34:37.238Z,2.50
2022-11-25T22:38:39.071Z,2.60
2022-11-25T22:42:47.158Z,2.25
2022-11-25T22:46:49.858Z,2.13
2022-11-25T22:50:51.686Z,2.42
2022-11-25T22:54:54.083Z,2.38
2022-11-25T22:59:00.023Z,1.98
2022-11-25T23:03:05.416Z,2.00
2022-11-25T23:07:12.222Z,2.53
2022-11-25T23:11:21.072Z,2.25
2022-11-25T23:15:23.952Z,2.10
2022-11-25T23:19:25.568Z,1.90
2022-11-25T23:23:28.861Z,1.90
2022-11-25T23:27:30.480Z,2.33
2022-11-25T23:31:35.676Z,2.03
2022-11-25T23:35:38.372Z,2.65
2022-11-25T23:39:40.125Z,2.30
2022-11-25T23:43:41.756Z,2.80
2022-11-25T23:47:45.659Z,2.10
2022-11-25T23:51:47.753Z,2.70
2022-11-25T23:55:50.416Z,2.35
2022-11-25T23:59:52.705Z,2.03
